sensor_id;sensor_type;location;lat;lon;timestamp;temperature;humidity
52451;DHT22;38366;53.176;6.540;2023-02-26T00:01:15;3.80;99.90
52451;DHT22;38366;53.176;6.540;2023-02-26T00:03:41;2.60;99.90
52451;DHT22;38366;53.176;6.540;2023-02-26T00:06:08;2.60;99.90
52451;DHT22;38366;53.176;6.540;2023-02-26T00:08:34;3.00;99.90
52451;DHT22;38366;53.176;6.540;2023-02-26T00:11:00;2.60;99.90
52451;DHT22;38366;53.176;6.540;2023-02-26T00:13:27;2.60;99.90
52451;DHT22;38366;53.176;6.540;2023-02-26T00:15:58;2.60;99.90
52451;DHT22;38366;53.176;6.540;2023-02-26T00:18:24;2.60;99.90
52451;DHT22;38366;53.176;6.540;2023-02-26T00:20:50;2.60;99.90
52451;DHT22;38366;53.176;6.540;2023-02-26T00:23:16;2.60;99.90
52451;DHT22;38366;53.176;6.540;2023-02-26T00:25:43;1.30;99.90
52451;DHT22;38366;53.176;6.540;2023-02-26T00:28:09;2.60;99.90
52451;DHT22;38366;53.176;6.540;2023-02-26T00:30:35;2.60;99.90
52451;DHT22;38366;53.176;6.540;2023-02-26T00:33:01;2.50;99.90
52451;DHT22;38366;53.176;6.540;2023-02-26T00:35:27;2.50;99.90
52451;DHT22;38366;53.176;6.540;2023-02-26T00:38:05;2.50;99.90
52451;DHT22;38366;53.176;6.540;2023-02-26T00:40:42;2.50;99.20
52451;DHT22;38366;53.176;6.540;2023-02-26T00:54:19;2.40;99.90
52451;DHT22;38366;53.176;6.540;2023-02-26T00:56:47;3.60;99.90
52451;DHT22;38366;53.176;6.540;2023-02-26T00:59:13;2.70;99.90
52451;DHT22;38366;53.176;6.540;2023-02-26T01:01:39;2.40;99.90
52451;DHT22;38366;53.176;6.540;2023-02-26T01:04:04;2.20;99.90
52451;DHT22;38366;53.176;6.540;2023-02-26T01:06:33;2.10;99.90
52451;DHT22;38366;53.176;6.540;2023-02-26T01:09:23;2.10;99.90
52451;DHT22;38366;53.176;6.540;2023-02-26T01:11:51;2.00;99.90
52451;DHT22;38366;53.176;6.540;2023-02-26T01:14:17;2.00;99.90
52451;DHT22;38366;53.176;6.540;2023-02-26T01:17:01;2.00;99.90
52451;DHT22;38366;53.176;6.540;2023-02-26T01:19:49;1.90;99.90
52451;DHT22;38366;53.176;6.540;2023-02-26T01:22:39;1.90;99.90
52451;DHT22;38366;53.176;6.540;2023-02-26T01:25:10;2.10;99.90
52451;DHT22;38366;53.176;6.540;2023-02-26T01:27:37;1.80;99.90
52451;DHT22;38366;53.176;6.540;2023-02-26T01:30:04;1.80;99.90
52451;DHT22;38366;53.176;6.540;2023-02-26T01:35:31;1.70;99.90
52451;DHT22;38366;53.176;6.540;2023-02-26T01:38:16;1.60;99.90
52451;DHT22;38366;53.176;6.540;2023-02-26T01:44:04;1.60;99.90
52451;DHT22;38366;53.176;6.540;2023-02-26T01:46:58;1.60;99.90
52451;DHT22;38366;53.176;6.540;2023-02-26T01:49:27;1.50;99.90
52451;DHT22;38366;53.176;6.540;2023-02-26T01:51:58;1.50;99.90
52451;DHT22;38366;53.176;6.540;2023-02-26T01:54:28;1.50;99.90
52451;DHT22;38366;53.176;6.540;2023-02-26T01:57:13;1.50;99.90
52451;DHT22;38366;53.176;6.540;2023-02-26T01:59:42;1.50;99.90
52451;DHT22;38366;53.176;6.540;2023-02-26T02:02:11;1.40;99.90
52451;DHT22;38366;53.176;6.540;2023-02-26T02:04:38;1.50;99.90
52451;DHT22;38366;53.176;6.540;2023-02-26T02:07:05;2.40;99.90
52451;DHT22;38366;53.176;6.540;2023-02-26T02:09:31;2.60;99.90
52451;DHT22;38366;53.176;6.540;2023-02-26T02:12:32;1.30;99.90
52451;DHT22;38366;53.176;6.540;2023-02-26T02:17:49;1.30;99.90
52451;DHT22;38366;53.176;6.540;2023-02-26T02:20:23;1.30;99.90
52451;DHT22;38366;53.176;6.540;2023-02-26T02:23:15;1.20;99.90
52451;DHT22;38366;53.176;6.540;2023-02-26T02:26:13;1.20;99.90
52451;DHT22;38366;53.176;6.540;2023-02-26T02:31:33;1.10;99.90
52451;DHT22;38366;53.176;6.540;2023-02-26T02:34:20;1.10;99.90
52451;DHT22;38366;53.176;6.540;2023-02-26T02:37:04;1.20;99.90
52451;DHT22;38366;53.176;6.540;2023-02-26T02:39:39;1.10;99.90
52451;DHT22;38366;53.176;6.540;2023-02-26T02:44:57;1.10;99.90
52451;DHT22;38366;53.176;6.540;2023-02-26T02:47:26;1.10;99.90
52451;DHT22;38366;53.176;6.540;2023-02-26T02:52:42;1.00;99.90
52451;DHT22;38366;53.176;6.540;2023-02-26T02:55:27;1.00;99.90
52451;DHT22;38366;53.176;6.540;2023-02-26T02:58:05;1.00;99.90
52451;DHT22;38366;53.176;6.540;2023-02-26T03:00:35;1.60;99.90
52451;DHT22;38366;53.176;6.540;2023-02-26T03:05:51;0.90;99.90
52451;DHT22;38366;53.176;6.540;2023-02-26T03:08:20;1.10;99.90
52451;DHT22;38366;53.176;6.540;2023-02-26T03:10:46;0.80;99.90
52451;DHT22;38366;53.176;6.540;2023-02-26T03:13:24;0.80;99.90
52451;DHT22;38366;53.176;6.540;2023-02-26T03:19:07;0.70;99.90
52451;DHT22;38366;53.176;6.540;2023-02-26T03:21:52;0.70;99.90
52451;DHT22;38366;53.176;6.540;2023-02-26T03:27:13;0.70;99.90
52451;DHT22;38366;53.176;6.540;2023-02-26T03:35:16;0.70;99.90
52451;DHT22;38366;53.176;6.540;2023-02-26T03:37:46;0.60;99.90
52451;DHT22;38366;53.176;6.540;2023-02-26T03:40:41;0.60;99.90
52451;DHT22;38366;53.176;6.540;2023-02-26T03:43:20;0.80;99.90
52451;DHT22;38366;53.176;6.540;2023-02-26T03:45:48;0.60;99.90
52451;DHT22;38366;53.176;6.540;2023-02-26T03:48:19;0.90;99.90
52451;DHT22;38366;53.176;6.540;2023-02-26T03:50:49;0.60;99.90
52451;DHT22;38366;53.176;6.540;2023-02-26T03:53:21;0.60;99.90
52451;DHT22;38366;53.176;6.540;2023-02-26T03:56:08;0.60;99.90
52451;DHT22;38366;53.176;6.540;2023-02-26T03:58:36;0.50;99.90
52451;DHT22;38366;53.176;6.540;2023-02-26T04:01:18;0.50;99.90
52451;DHT22;38366;53.176;6.540;2023-02-26T04:06:26;0.40;99.90
52451;DHT22;38366;53.176;6.540;2023-02-26T04:08:52;0.40;99.90
52451;DHT22;38366;53.176;6.540;2023-02-26T04:11:20;0.80;99.90
52451;DHT22;38366;53.176;6.540;2023-02-26T04:13:47;0.30;99.90
52451;DHT22;38366;53.176;6.540;2023-02-26T04:16:14;0.30;99.90
52451;DHT22;38366;53.176;6.540;2023-02-26T04:18:40;0.30;99.90
52451;DHT22;38366;53.176;6.540;2023-02-26T04:21:10;1.90;99.90
52451;DHT22;38366;53.176;6.540;2023-02-26T04:23:36;0.30;99.90
52451;DHT22;38366;53.176;6.540;2023-02-26T04:26:02;0.60;99.90
52451;DHT22;38366;53.176;6.540;2023-02-26T04:28:28;0.40;99.90
52451;DHT22;38366;53.176;6.540;2023-02-26T04:30:54;0.40;99.90
52451;DHT22;38366;53.176;6.540;2023-02-26T04:33:20;0.40;99.90
52451;DHT22;38366;53.176;6.540;2023-02-26T04:35:47;1.80;99.90
52451;DHT22;38366;53.176;6.540;2023-02-26T04:38:13;0.70;99.90
52451;DHT22;38366;53.176;6.540;2023-02-26T04:40:39;0.50;99.90
52451;DHT22;38366;53.176;6.540;2023-02-26T04:43:05;2.00;99.90
52451;DHT22;38366;53.176;6.540;2023-02-26T04:45:30;0.50;99.90
52451;DHT22;38366;53.176;6.540;2023-02-26T04:47:56;0.50;99.90
52451;DHT22;38366;53.176;6.540;2023-02-26T04:50:22;0.60;99.90
52451;DHT22;38366;53.176;6.540;2023-02-26T04:52:48;0.50;99.90
52451;DHT22;38366;53.176;6.540;2023-02-26T04:55:13;1.40;99.90
52451;DHT22;38366;53.176;6.540;2023-02-26T04:57:39;0.50;99.90
52451;DHT22;38366;53.176;6.540;2023-02-26T05:00:05;1.40;99.90
52451;DHT22;38366;53.176;6.540;2023-02-26T05:02:34;0.40;99.90
52451;DHT22;38366;53.176;6.540;2023-02-26T05:05:00;0.40;99.90
52451;DHT22;38366;53.176;6.540;2023-02-26T05:07:25;1.70;99.90
52451;DHT22;38366;53.176;6.540;2023-02-26T05:09:51;0.40;99.90
52451;DHT22;38366;53.176;6.540;2023-02-26T05:12:17;1.80;99.90
52451;DHT22;38366;53.176;6.540;2023-02-26T05:14:42;0.40;99.90
52451;DHT22;38366;53.176;6.540;2023-02-26T05:17:08;0.60;99.90
52451;DHT22;38366;53.176;6.540;2023-02-26T05:19:34;0.60;99.90
52451;DHT22;38366;53.176;6.540;2023-02-26T05:22:00;0.50;99.90
52451;DHT22;38366;53.176;6.540;2023-02-26T05:24:26;0.40;99.90
52451;DHT22;38366;53.176;6.540;2023-02-26T05:26:51;0.40;99.90
52451;DHT22;38366;53.176;6.540;2023-02-26T05:29:17;0.50;99.90
52451;DHT22;38366;53.176;6.540;2023-02-26T05:31:43;1.50;99.90
52451;DHT22;38366;53.176;6.540;2023-02-26T05:34:09;0.50;99.90
52451;DHT22;38366;53.176;6.540;2023-02-26T05:36:35;0.50;99.90
52451;DHT22;38366;53.176;6.540;2023-02-26T05:39:00;0.50;99.90
52451;DHT22;38366;53.176;6.540;2023-02-26T05:41:26;0.60;99.90
52451;DHT22;38366;53.176;6.540;2023-02-26T05:43:52;0.70;99.90
52451;DHT22;38366;53.176;6.540;2023-02-26T05:46:17;0.60;99.90
52451;DHT22;38366;53.176;6.540;2023-02-26T05:48:43;0.60;99.90
52451;DHT22;38366;53.176;6.540;2023-02-26T05:51:09;0.70;99.90
52451;DHT22;38366;53.176;6.540;2023-02-26T05:53:35;0.30;99.90
52451;DHT22;38366;53.176;6.540;2023-02-26T05:56:01;0.70;99.90
52451;DHT22;38366;53.176;6.540;2023-02-26T05:58:27;1.90;99.90
52451;DHT22;38366;53.176;6.540;2023-02-26T06:00:52;2.20;99.90
52451;DHT22;38366;53.176;6.540;2023-02-26T06:03:18;0.80;99.90
52451;DHT22;38366;53.176;6.540;2023-02-26T06:05:44;0.80;99.90
52451;DHT22;38366;53.176;6.540;2023-02-26T06:08:10;0.70;99.90
52451;DHT22;38366;53.176;6.540;2023-02-26T06:10:39;1.10;99.90
52451;DHT22;38366;53.176;6.540;2023-02-26T06:13:05;1.90;99.90
52451;DHT22;38366;53.176;6.540;2023-02-26T06:15:31;0.70;99.90
52451;DHT22;38366;53.176;6.540;2023-02-26T06:17:57;1.10;99.90
52451;DHT22;38366;53.176;6.540;2023-02-26T06:20:23;0.90;99.90
52451;DHT22;38366;53.176;6.540;2023-02-26T06:22:49;2.70;99.90
52451;DHT22;38366;53.176;6.540;2023-02-26T06:25:15;0.80;99.90
52451;DHT22;38366;53.176;6.540;2023-02-26T06:27:41;2.50;99.90
52451;DHT22;38366;53.176;6.540;2023-02-26T06:30:07;0.80;99.90
52451;DHT22;38366;53.176;6.540;2023-02-26T06:32:33;0.70;99.90
52451;DHT22;38366;53.176;6.540;2023-02-26T06:34:59;0.70;99.90
52451;DHT22;38366;53.176;6.540;2023-02-26T06:37:24;0.70;99.90
52451;DHT22;38366;53.176;6.540;2023-02-26T06:39:50;0.70;99.90
52451;DHT22;38366;53.176;6.540;2023-02-26T06:42:16;0.60;99.90
52451;DHT22;38366;53.176;6.540;2023-02-26T06:44:42;0.60;99.90
52451;DHT22;38366;53.176;6.540;2023-02-26T06:47:07;0.70;99.90
52451;DHT22;38366;53.176;6.540;2023-02-26T06:49:33;0.70;99.90
52451;DHT22;38366;53.176;6.540;2023-02-26T06:51:58;0.70;99.90
52451;DHT22;38366;53.176;6.540;2023-02-26T06:54:24;0.70;99.90
52451;DHT22;38366;53.176;6.540;2023-02-26T06:56:50;0.70;99.90
52451;DHT22;38366;53.176;6.540;2023-02-26T06:59:15;0.70;99.90
52451;DHT22;38366;53.176;6.540;2023-02-26T07:01:41;0.70;99.90
52451;DHT22;38366;53.176;6.540;2023-02-26T07:04:07;0.80;99.90
52451;DHT22;38366;53.176;6.540;2023-02-26T07:06:33;0.90;99.90
52451;DHT22;38366;53.176;6.540;2023-02-26T07:08:58;1.00;99.90
52451;DHT22;38366;53.176;6.540;2023-02-26T07:11:24;1.10;99.90
52451;DHT22;38366;53.176;6.540;2023-02-26T07:13:50;1.20;99.90
52451;DHT22;38366;53.176;6.540;2023-02-26T07:16:16;1.40;99.90
52451;DHT22;38366;53.176;6.540;2023-02-26T07:18:42;1.50;99.90
52451;DHT22;38366;53.176;6.540;2023-02-26T07:21:08;1.60;99.90
52451;DHT22;38366;53.176;6.540;2023-02-26T07:23:33;2.20;99.90
52451;DHT22;38366;53.176;6.540;2023-02-26T07:25:59;3.10;99.90
52451;DHT22;38366;53.176;6.540;2023-02-26T07:28:25;2.30;99.90
52451;DHT22;38366;53.176;6.540;2023-02-26T07:30:53;2.50;99.90
52451;DHT22;38366;53.176;6.540;2023-02-26T07:33:20;3.40;99.90
52451;DHT22;38366;53.176;6.540;2023-02-26T07:35:46;3.30;99.90
52451;DHT22;38366;53.176;6.540;2023-02-26T07:38:12;4.00;99.90
52451;DHT22;38366;53.176;6.540;2023-02-26T07:40:37;3.80;99.90
52451;DHT22;38366;53.176;6.540;2023-02-26T07:43:03;3.10;99.90
52451;DHT22;38366;53.176;6.540;2023-02-26T07:45:29;3.00;99.90
52451;DHT22;38366;53.176;6.540;2023-02-26T07:47:55;3.10;99.90
52451;DHT22;38366;53.176;6.540;2023-02-26T07:50:21;3.20;99.90
52451;DHT22;38366;53.176;6.540;2023-02-26T07:52:50;3.00;99.90
52451;DHT22;38366;53.176;6.540;2023-02-26T07:55:16;2.90;99.90
52451;DHT22;38366;53.176;6.540;2023-02-26T07:57:42;2.80;99.90
52451;DHT22;38366;53.176;6.540;2023-02-26T08:00:08;3.80;99.90
52451;DHT22;38366;53.176;6.540;2023-02-26T08:02:34;2.80;99.90
52451;DHT22;38366;53.176;6.540;2023-02-26T08:05:00;2.90;99.90
52451;DHT22;38366;53.176;6.540;2023-02-26T08:07:25;3.10;99.90
52451;DHT22;38366;53.176;6.540;2023-02-26T08:09:51;3.40;99.90
52451;DHT22;38366;53.176;6.540;2023-02-26T08:12:17;3.80;99.90
52451;DHT22;38366;53.176;6.540;2023-02-26T08:14:42;4.60;99.90
52451;DHT22;38366;53.176;6.540;2023-02-26T08:17:08;5.50;99.90
52451;DHT22;38366;53.176;6.540;2023-02-26T08:19:34;6.40;99.90
52451;DHT22;38366;53.176;6.540;2023-02-26T08:22:00;7.10;99.90
52451;DHT22;38366;53.176;6.540;2023-02-26T08:24:25;7.60;99.90
52451;DHT22;38366;53.176;6.540;2023-02-26T08:26:51;8.00;99.90
52451;DHT22;38366;53.176;6.540;2023-02-26T08:29:18;8.20;99.40
52451;DHT22;38366;53.176;6.540;2023-02-26T08:31:44;8.90;99.90
52451;DHT22;38366;53.176;6.540;2023-02-26T08:34:10;9.10;98.50
52451;DHT22;38366;53.176;6.540;2023-02-26T08:36:36;9.10;98.50
52451;DHT22;38366;53.176;6.540;2023-02-26T08:39:02;9.10;98.20
52451;DHT22;38366;53.176;6.540;2023-02-26T08:41:28;9.70;97.10
52451;DHT22;38366;53.176;6.540;2023-02-26T08:43:57;9.80;97.00
52451;DHT22;38366;53.176;6.540;2023-02-26T08:46:23;10.20;96.40
52451;DHT22;38366;53.176;6.540;2023-02-26T08:48:49;10.10;96.30
52451;DHT22;38366;53.176;6.540;2023-02-26T08:51:14;10.30;95.80
52451;DHT22;38366;53.176;6.540;2023-02-26T08:53:40;9.70;95.80
52451;DHT22;38366;53.176;6.540;2023-02-26T08:56:06;9.40;96.30
52451;DHT22;38366;53.176;6.540;2023-02-26T08:58:32;9.50;96.40
52451;DHT22;38366;53.176;6.540;2023-02-26T09:00:57;9.70;96.40
52451;DHT22;38366;53.176;6.540;2023-02-26T09:03:23;10.20;96.30
52451;DHT22;38366;53.176;6.540;2023-02-26T09:05:50;10.40;95.70
52451;DHT22;38366;53.176;6.540;2023-02-26T09:08:16;10.60;94.70
52451;DHT22;38366;53.176;6.540;2023-02-26T09:10:42;10.40;94.90
52451;DHT22;38366;53.176;6.540;2023-02-26T09:13:08;11.00;95.20
52451;DHT22;38366;53.176;6.540;2023-02-26T09:15:34;11.00;94.00
52451;DHT22;38366;53.176;6.540;2023-02-26T09:17:59;11.20;93.80
52451;DHT22;38366;53.176;6.540;2023-02-26T09:20:25;11.30;93.50
52451;DHT22;38366;53.176;6.540;2023-02-26T09:22:51;11.70;93.30
52451;DHT22;38366;53.176;6.540;2023-02-26T09:25:17;11.40;92.90
52451;DHT22;38366;53.176;6.540;2023-02-26T09:27:43;11.70;93.10
52451;DHT22;38366;53.176;6.540;2023-02-26T09:30:10;11.60;93.40
52451;DHT22;38366;53.176;6.540;2023-02-26T09:32:36;11.80;93.20
52451;DHT22;38366;53.176;6.540;2023-02-26T09:35:03;12.10;92.50
52451;DHT22;38366;53.176;6.540;2023-02-26T09:37:29;11.60;92.90
52451;DHT22;38366;53.176;6.540;2023-02-26T09:39:55;11.50;92.90
52451;DHT22;38366;53.176;6.540;2023-02-26T09:45:33;11.80;93.10
52451;DHT22;38366;53.176;6.540;2023-02-26T09:48:03;12.10;92.70
52451;DHT22;38366;53.176;6.540;2023-02-26T09:50:43;12.40;92.20
52451;DHT22;38366;53.176;6.540;2023-02-26T09:53:26;12.70;91.90
52451;DHT22;38366;53.176;6.540;2023-02-26T09:56:03;12.70;91.90
52451;DHT22;38366;53.176;6.540;2023-02-26T09:58:36;12.70;91.90
52451;DHT22;38366;53.176;6.540;2023-02-26T10:01:30;12.40;91.80
52451;DHT22;38366;53.176;6.540;2023-02-26T10:12:21;12.70;91.60
52451;DHT22;38366;53.176;6.540;2023-02-26T10:15:13;12.80;91.20
52451;DHT22;38366;53.176;6.540;2023-02-26T10:18:20;12.70;91.20
52451;DHT22;38366;53.176;6.540;2023-02-26T10:20:57;12.50;91.70
52451;DHT22;38366;53.176;6.540;2023-02-26T10:25:59;12.20;91.80
52451;DHT22;38366;53.176;6.540;2023-02-26T10:34:20;12.40;91.70
52451;DHT22;38366;53.176;6.540;2023-02-26T10:37:12;12.50;91.90
52451;DHT22;38366;53.176;6.540;2023-02-26T10:40:16;12.50;90.70
52451;DHT22;38366;53.176;6.540;2023-02-26T10:43:31;12.30;91.00
52451;DHT22;38366;53.176;6.540;2023-02-26T10:52:18;11.90;90.80
52451;DHT22;38366;53.176;6.540;2023-02-26T10:57:43;11.70;91.70
52451;DHT22;38366;53.176;6.540;2023-02-26T11:00:18;11.80;91.30
52451;DHT22;38366;53.176;6.540;2023-02-26T11:02:47;11.90;91.50
52451;DHT22;38366;53.176;6.540;2023-02-26T11:05:37;11.70;92.10
52451;DHT22;38366;53.176;6.540;2023-02-26T11:08:10;10.70;91.80
52451;DHT22;38366;53.176;6.540;2023-02-26T11:10:44;10.50;92.80
52451;DHT22;38366;53.176;6.540;2023-02-26T11:13:12;10.20;93.00
52451;DHT22;38366;53.176;6.540;2023-02-26T11:15:38;10.20;93.10
52451;DHT22;38366;53.176;6.540;2023-02-26T11:18:04;10.30;92.90
52451;DHT22;38366;53.176;6.540;2023-02-26T11:20:38;11.10;92.50
52451;DHT22;38366;53.176;6.540;2023-02-26T11:23:11;11.30;92.40
52451;DHT22;38366;53.176;6.540;2023-02-26T11:25:38;11.10;92.70
52451;DHT22;38366;53.176;6.540;2023-02-26T11:28:24;10.90;92.10
52451;DHT22;38366;53.176;6.540;2023-02-26T11:30:51;10.80;92.50
52451;DHT22;38366;53.176;6.540;2023-02-26T11:33:36;11.50;92.80
52451;DHT22;38366;53.176;6.540;2023-02-26T11:36:11;12.40;91.90
52451;DHT22;38366;53.176;6.540;2023-02-26T11:38:37;12.70;91.80
52451;DHT22;38366;53.176;6.540;2023-02-26T11:41:04;12.30;91.40
52451;DHT22;38366;53.176;6.540;2023-02-26T11:43:36;11.70;91.60
52451;DHT22;38366;53.176;6.540;2023-02-26T11:46:04;11.40;91.60
52451;DHT22;38366;53.176;6.540;2023-02-26T11:51:04;12.00;91.80
52451;DHT22;38366;53.176;6.540;2023-02-26T11:56:01;12.50;91.40
52451;DHT22;38366;53.176;6.540;2023-02-26T11:58:29;12.50;91.60
52451;DHT22;38366;53.176;6.540;2023-02-26T12:00:58;12.90;91.20
52451;DHT22;38366;53.176;6.540;2023-02-26T12:03:27;13.30;90.80
52451;DHT22;38366;53.176;6.540;2023-02-26T12:05:57;13.60;90.70
52451;DHT22;38366;53.176;6.540;2023-02-26T12:08:32;14.20;90.80
52451;DHT22;38366;53.176;6.540;2023-02-26T12:11:28;14.50;90.90
52451;DHT22;38366;53.176;6.540;2023-02-26T12:17:11;15.00;89.90
52451;DHT22;38366;53.176;6.540;2023-02-26T12:34:36;11.00;92.20
52451;DHT22;38366;53.176;6.540;2023-02-26T12:37:19;10.80;92.00
52451;DHT22;38366;53.176;6.540;2023-02-26T12:56:48;13.20;90.50
52451;DHT22;38366;53.176;6.540;2023-02-26T13:13:51;12.80;91.30
52451;DHT22;38366;53.176;6.540;2023-02-26T13:16:34;12.70;91.70
52451;DHT22;38366;53.176;6.540;2023-02-26T13:19:26;11.50;92.00
52451;DHT22;38366;53.176;6.540;2023-02-26T13:21:58;10.40;93.20
52451;DHT22;38366;53.176;6.540;2023-02-26T13:24:37;10.60;93.20
52451;DHT22;38366;53.176;6.540;2023-02-26T13:27:05;10.80;93.30
52451;DHT22;38366;53.176;6.540;2023-02-26T13:29:46;10.60;93.50
52451;DHT22;38366;53.176;6.540;2023-02-26T13:32:17;10.00;93.20
52451;DHT22;38366;53.176;6.540;2023-02-26T13:35:08;9.80;93.80
52451;DHT22;38366;53.176;6.540;2023-02-26T13:37:41;9.60;94.30
52451;DHT22;38366;53.176;6.540;2023-02-26T13:54:27;8.80;95.00
52451;DHT22;38366;53.176;6.540;2023-02-26T13:57:05;8.60;94.80
52451;DHT22;38366;53.176;6.540;2023-02-26T13:59:36;8.80;94.90
52451;DHT22;38366;53.176;6.540;2023-02-26T14:04:56;8.90;95.60
52451;DHT22;38366;53.176;6.540;2023-02-26T14:08:37;8.80;94.80
52451;DHT22;38366;53.176;6.540;2023-02-26T14:10:42;8.70;94.60
52451;DHT22;38366;53.176;6.540;2023-02-26T14:13:16;8.50;94.50
52451;DHT22;38366;53.176;6.540;2023-02-26T14:16:11;8.20;95.00
52451;DHT22;38366;53.176;6.540;2023-02-26T14:18:49;8.40;95.30
52451;DHT22;38366;53.176;6.540;2023-02-26T14:21:35;8.10;94.90
52451;DHT22;38366;53.176;6.540;2023-02-26T14:24:18;8.10;95.70
52451;DHT22;38366;53.176;6.540;2023-02-26T14:26:49;8.10;95.90
52451;DHT22;38366;53.176;6.540;2023-02-26T14:29:20;8.10;95.80
52451;DHT22;38366;53.176;6.540;2023-02-26T14:31:55;7.90;95.60
52451;DHT22;38366;53.176;6.540;2023-02-26T14:34:29;7.80;96.10
52451;DHT22;38366;53.176;6.540;2023-02-26T14:37:01;7.70;96.60
52451;DHT22;38366;53.176;6.540;2023-02-26T14:39:33;7.60;97.10
52451;DHT22;38366;53.176;6.540;2023-02-26T14:42:05;7.70;97.60
52451;DHT22;38366;53.176;6.540;2023-02-26T14:44:59;7.90;97.20
52451;DHT22;38366;53.176;6.540;2023-02-26T14:47:28;7.90;96.40
52451;DHT22;38366;53.176;6.540;2023-02-26T14:49:54;7.70;96.30
52451;DHT22;38366;53.176;6.540;2023-02-26T15:06:32;7.80;97.20
52451;DHT22;38366;53.176;6.540;2023-02-26T15:09:22;7.50;97.20
52451;DHT22;38366;53.176;6.540;2023-02-26T15:20:51;7.60;96.30
52451;DHT22;38366;53.176;6.540;2023-02-26T15:26:05;7.50;96.50
52451;DHT22;38366;53.176;6.540;2023-02-26T15:28:35;7.30;97.00
52451;DHT22;38366;53.176;6.540;2023-02-26T15:31:03;7.20;97.80
52451;DHT22;38366;53.176;6.540;2023-02-26T15:33:31;7.10;98.00
52451;DHT22;38366;53.176;6.540;2023-02-26T15:35:59;7.20;98.50
52451;DHT22;38366;53.176;6.540;2023-02-26T15:38:25;7.10;98.50
52451;DHT22;38366;53.176;6.540;2023-02-26T15:40:53;7.30;98.00
52451;DHT22;38366;53.176;6.540;2023-02-26T15:43:24;7.10;98.30
52451;DHT22;38366;53.176;6.540;2023-02-26T15:45:56;7.20;98.00
52451;DHT22;38366;53.176;6.540;2023-02-26T15:48:29;7.00;98.30
52451;DHT22;38366;53.176;6.540;2023-02-26T15:50:59;7.00;98.00
52451;DHT22;38366;53.176;6.540;2023-02-26T15:53:40;7.50;98.10
52451;DHT22;38366;53.176;6.540;2023-02-26T15:56:20;6.90;98.00
52451;DHT22;38366;53.176;6.540;2023-02-26T15:59:09;6.80;98.10
52451;DHT22;38366;53.176;6.540;2023-02-26T16:01:35;6.90;98.50
52451;DHT22;38366;53.176;6.540;2023-02-26T16:04:04;7.10;98.80
52451;DHT22;38366;53.176;6.540;2023-02-26T16:06:36;7.10;98.60
52451;DHT22;38366;53.176;6.540;2023-02-26T16:09:05;7.20;98.80
52451;DHT22;38366;53.176;6.540;2023-02-26T16:11:34;7.20;98.60
52451;DHT22;38366;53.176;6.540;2023-02-26T16:14:02;7.00;98.80
52451;DHT22;38366;53.176;6.540;2023-02-26T16:16:55;6.80;99.10
52451;DHT22;38366;53.176;6.540;2023-02-26T16:19:35;6.60;99.10
52451;DHT22;38366;53.176;6.540;2023-02-26T16:22:11;6.50;99.30
52451;DHT22;38366;53.176;6.540;2023-02-26T16:24:38;6.40;99.50
52451;DHT22;38366;53.176;6.540;2023-02-26T16:27:06;6.40;99.60
52451;DHT22;38366;53.176;6.540;2023-02-26T16:29:35;6.30;99.00
52451;DHT22;38366;53.176;6.540;2023-02-26T16:32:02;6.30;99.30
52451;DHT22;38366;53.176;6.540;2023-02-26T16:39:45;6.10;99.60
52451;DHT22;38366;53.176;6.540;2023-02-26T16:42:20;6.00;99.90
52451;DHT22;38366;53.176;6.540;2023-02-26T16:45:17;6.10;99.90
52451;DHT22;38366;53.176;6.540;2023-02-26T16:47:48;6.10;99.90
52451;DHT22;38366;53.176;6.540;2023-02-26T16:50:24;5.90;99.90
52451;DHT22;38366;53.176;6.540;2023-02-26T16:55:26;5.90;99.90
52451;DHT22;38366;53.176;6.540;2023-02-26T16:57:54;5.90;99.90
52451;DHT22;38366;53.176;6.540;2023-02-26T17:00:23;5.90;99.90
52451;DHT22;38366;53.176;6.540;2023-02-26T17:03:03;5.90;99.90
52451;DHT22;38366;53.176;6.540;2023-02-26T17:05:33;5.90;99.90
52451;DHT22;38366;53.176;6.540;2023-02-26T17:08:19;5.90;99.90
52451;DHT22;38366;53.176;6.540;2023-02-26T17:10:53;5.80;99.90
52451;DHT22;38366;53.176;6.540;2023-02-26T17:13:28;5.60;99.90
52451;DHT22;38366;53.176;6.540;2023-02-26T17:15:58;5.70;99.90
52451;DHT22;38366;53.176;6.540;2023-02-26T17:18:25;5.60;99.90
52451;DHT22;38366;53.176;6.540;2023-02-26T17:20:51;5.60;99.90
52451;DHT22;38366;53.176;6.540;2023-02-26T17:23:18;6.10;99.90
52451;DHT22;38366;53.176;6.540;2023-02-26T17:25:49;6.20;99.90
52451;DHT22;38366;53.176;6.540;2023-02-26T17:28:24;5.60;99.90
52451;DHT22;38366;53.176;6.540;2023-02-26T17:30:51;5.60;99.90
52451;DHT22;38366;53.176;6.540;2023-02-26T17:33:17;5.70;99.90
52451;DHT22;38366;53.176;6.540;2023-02-26T17:35:43;5.70;99.90
52451;DHT22;38366;53.176;6.540;2023-02-26T17:38:10;5.60;99.90
52451;DHT22;38366;53.176;6.540;2023-02-26T17:40:38;5.60;99.90
52451;DHT22;38366;53.176;6.540;2023-02-26T17:43:05;5.50;99.90
52451;DHT22;38366;53.176;6.540;2023-02-26T17:45:32;5.40;99.90
52451;DHT22;38366;53.176;6.540;2023-02-26T17:47:59;5.30;99.90
52451;DHT22;38366;53.176;6.540;2023-02-26T17:50:55;5.20;99.90
52451;DHT22;38366;53.176;6.540;2023-02-26T17:53:23;5.20;99.90
52451;DHT22;38366;53.176;6.540;2023-02-26T17:55:52;5.10;99.90
52451;DHT22;38366;53.176;6.540;2023-02-26T17:58:32;5.10;99.90
52451;DHT22;38366;53.176;6.540;2023-02-26T18:00:58;5.20;99.90
52451;DHT22;38366;53.176;6.540;2023-02-26T18:03:24;5.20;99.90
52451;DHT22;38366;53.176;6.540;2023-02-26T18:05:52;5.20;99.90
52451;DHT22;38366;53.176;6.540;2023-02-26T18:08:24;5.20;99.90
52451;DHT22;38366;53.176;6.540;2023-02-26T18:10:51;5.20;99.90
52451;DHT22;38366;53.176;6.540;2023-02-26T18:13:18;5.10;99.90
52451;DHT22;38366;53.176;6.540;2023-02-26T18:15:44;5.20;99.90
52451;DHT22;38366;53.176;6.540;2023-02-26T18:18:11;5.20;99.90
52451;DHT22;38366;53.176;6.540;2023-02-26T18:20:37;5.20;99.90
52451;DHT22;38366;53.176;6.540;2023-02-26T18:23:04;5.10;99.90
52451;DHT22;38366;53.176;6.540;2023-02-26T18:25:50;5.00;99.90
52451;DHT22;38366;53.176;6.540;2023-02-26T18:28:23;5.00;99.90
52451;DHT22;38366;53.176;6.540;2023-02-26T18:30:49;5.00;99.90
52451;DHT22;38366;53.176;6.540;2023-02-26T18:33:17;5.00;99.90
52451;DHT22;38366;53.176;6.540;2023-02-26T18:35:53;4.90;99.90
52451;DHT22;38366;53.176;6.540;2023-02-26T18:38:23;4.90;99.90
52451;DHT22;38366;53.176;6.540;2023-02-26T18:40:49;5.40;99.90
52451;DHT22;38366;53.176;6.540;2023-02-26T18:43:15;4.80;99.90
52451;DHT22;38366;53.176;6.540;2023-02-26T18:45:43;4.80;99.90
52451;DHT22;38366;53.176;6.540;2023-02-26T18:48:11;4.80;99.90
52451;DHT22;38366;53.176;6.540;2023-02-26T18:50:38;4.80;99.90
52451;DHT22;38366;53.176;6.540;2023-02-26T18:53:03;4.70;99.90
52451;DHT22;38366;53.176;6.540;2023-02-26T18:55:29;4.80;99.90
52451;DHT22;38366;53.176;6.540;2023-02-26T18:57:55;4.70;99.90
52451;DHT22;38366;53.176;6.540;2023-02-26T19:00:22;4.70;99.90
52451;DHT22;38366;53.176;6.540;2023-02-26T19:02:48;4.60;99.90
52451;DHT22;38366;53.176;6.540;2023-02-26T19:05:15;4.60;99.90